Time;durP1;ratioP1;P1;durP2;ratioP2;P2;SDS_P1;SDS_P2;PMS_P1;PMS_P2;Temp;Humidity;BMP_temperature;BMP_pressure;BME280_temperature;BME280_humidity;BME280_pressure;Samples;Min_cycle;Max_cycle;Signal;HPM_P1;HPM_P2
2020/12/06 00:00:07;;;;;;;6.40;3.15;;;20.90;45.30;;;;;;5072501;28;20028;-47
2020/12/06 00:02:32;;;;;;;4.68;2.85;;;21.00;45.40;;;;;;5072884;28;20040;-48
2020/12/06 00:04:58;;;;;;;3.72;3.33;;;21.00;45.40;;;;;;5071910;28;20427;-48
2020/12/06 00:07:23;;;;;;;3.50;3.00;;;21.00;45.30;;;;;;5073049;28;20024;-48
2020/12/06 00:09:49;;;;;;;5.20;3.47;;;21.00;45.30;;;;;;5069943;28;20028;-49
2020/12/06 00:12:15;;;;;;;8.10;3.00;;;20.90;45.30;;;;;;5075228;28;20078;-49
2020/12/06 00:14:40;;;;;;;3.58;3.20;;;20.90;45.20;;;;;;5073564;28;20028;-52
2020/12/06 00:17:06;;;;;;;3.25;2.83;;;20.90;45.30;;;;;;5071893;28;20024;-48
2020/12/06 00:19:32;;;;;;;4.10;3.10;;;20.90;45.20;;;;;;5072853;28;20040;-48
2020/12/06 00:21:57;;;;;;;3.38;2.88;;;20.90;45.30;;;;;;5064694;28;20384;-55
2020/12/06 00:24:23;;;;;;;5.13;3.08;;;20.90;45.20;;;;;;5088923;28;20040;-47
2020/12/06 00:26:49;;;;;;;4.82;3.08;;;20.90;45.30;;;;;;5075252;28;20028;-49
2020/12/06 00:29:14;;;;;;;3.85;3.17;;;20.90;45.30;;;;;;5071750;28;20036;-48
2020/12/06 00:31:40;;;;;;;6.00;3.20;;;20.90;45.20;;;;;;5072822;28;20067;-46
2020/12/06 00:34:06;;;;;;;5.10;3.30;;;20.90;45.30;;;;;;5070889;28;20388;-48
2020/12/06 00:36:31;;;;;;;4.38;3.10;;;20.90;45.30;;;;;;5072637;28;20379;-50
2020/12/06 00:38:57;;;;;;;4.78;2.63;;;20.90;45.40;;;;;;5075104;28;20392;-51
2020/12/06 00:41:23;;;;;;;8.20;3.25;;;20.90;45.40;;;;;;5071877;28;20032;-48
2020/12/06 00:43:49;;;;;;;3.47;3.08;;;20.90;45.40;;;;;;5070835;28;20032;-49
2020/12/06 00:46:21;;;;;;;4.43;2.58;;;20.90;45.40;;;;;;5072168;28;20370;-49
2020/12/06 00:48:48;;;;;;;5.03;2.65;;;20.90;45.40;;;;;;5071726;28;20099;-48
2020/12/06 00:51:13;;;;;;;3.90;3.03;;;20.90;45.40;;;;;;5071891;28;20078;-48
2020/12/06 00:53:43;;;;;;;3.92;3.25;;;20.90;45.30;;;;;;5082268;28;20028;-48
2020/12/06 00:56:17;;;;;;;3.22;2.58;;;20.90;45.40;;;;;;5071172;28;20470;-48
2020/12/06 00:58:43;;;;;;;3.28;2.72;;;20.90;45.40;;;;;;5071402;28;20031;-53
2020/12/06 01:01:08;;;;;;;3.58;3.00;;;20.90;45.40;;;;;;5072117;28;20028;-48
2020/12/06 01:03:34;;;;;;;4.20;2.90;;;20.90;45.40;;;;;;5072583;28;20053;-50
2020/12/06 01:05:59;;;;;;;3.33;2.78;;;20.90;45.40;;;;;;5068265;28;20037;-48
2020/12/06 01:08:25;;;;;;;2.80;2.35;;;20.90;45.40;;;;;;5071432;28;20090;-49
2020/12/06 01:10:51;;;;;;;3.53;2.45;;;20.90;45.40;;;;;;5070652;28;20382;-48
2020/12/06 01:13:16;;;;;;;3.58;2.55;;;20.90;45.30;;;;;;5071199;28;20024;-53
2020/12/06 01:15:42;;;;;;;4.70;3.05;;;20.90;45.30;;;;;;5072717;28;20530;-50
2020/12/06 01:18:08;;;;;;;3.35;2.65;;;20.90;45.30;;;;;;5070323;28;20406;-51
2020/12/06 01:20:33;;;;;;;4.57;2.58;;;20.90;45.20;;;;;;5072822;28;20048;-51
2020/12/06 01:22:59;;;;;;;3.97;3.00;;;20.90;45.20;;;;;;5078420;28;20020;-49
2020/12/06 01:25:24;;;;;;;3.03;2.72;;;20.90;45.20;;;;;;5070872;28;20036;-52
2020/12/06 01:27:50;;;;;;;4.80;3.17;;;20.90;45.20;;;;;;5071006;28;20028;-51
2020/12/06 01:30:16;;;;;;;3.65;3.10;;;20.90;45.10;;;;;;5070915;28;20028;-53
2020/12/06 01:32:42;;;;;;;3.08;2.45;;;20.90;45.10;;;;;;5073710;28;20036;-48
2020/12/06 01:35:07;;;;;;;4.55;3.20;;;20.90;45.20;;;;;;5069916;28;20773;-50
2020/12/06 01:37:33;;;;;;;3.47;2.78;;;20.90;45.20;;;;;;5070628;28;20119;-48
2020/12/06 01:39:58;;;;;;;2.85;2.45;;;20.90;45.10;;;;;;5073901;28;20024;-48
2020/12/06 01:42:24;;;;;;;3.92;2.60;;;20.90;45.20;;;;;;5071311;28;20123;-46
2020/12/06 01:44:57;;;;;;;3.20;2.60;;;20.90;45.30;;;;;;5069543;28;20040;-47
2020/12/06 01:47:24;;;;;;;4.13;2.75;;;20.90;45.20;;;;;;5069721;28;20033;-49
2020/12/06 01:49:50;;;;;;;3.90;2.47;;;20.90;45.20;;;;;;5068594;28;20032;-51
2020/12/06 01:52:16;;;;;;;4.25;2.70;;;20.80;45.10;;;;;;5052076;28;20112;-51
2020/12/06 01:54:41;;;;;;;3.10;2.40;;;20.80;45.10;;;;;;5069709;28;20047;-48
2020/12/06 01:57:07;;;;;;;3.70;2.67;;;20.80;45.10;;;;;;5066665;28;20818;-48
2020/12/06 01:59:33;;;;;;;4.05;2.50;;;20.80;45.20;;;;;;5070039;28;20077;-47
2020/12/06 02:02:00;;;;;;;3.03;2.45;;;20.80;45.20;;;;;;5070306;28;20151;-49
2020/12/06 02:04:28;;;;;;;4.03;3.00;;;20.80;45.20;;;;;;5070030;28;20045;-51
2020/12/06 02:06:55;;;;;;;4.00;3.22;;;20.70;45.10;;;;;;5068588;28;20477;-50
2020/12/06 02:09:21;;;;;;;3.38;2.65;;;20.70;45.10;;;;;;5069746;28;20043;-47
2020/12/06 02:11:47;;;;;;;4.85;2.83;;;20.70;45.10;;;;;;5071173;28;20087;-53
2020/12/06 02:14:13;;;;;;;3.75;2.58;;;20.70;45.10;;;;;;5073431;28;21064;-50
2020/12/06 02:16:39;;;;;;;4.25;2.60;;;20.70;45.10;;;;;;5073936;28;20105;-49
2020/12/06 02:19:06;;;;;;;2.53;2.03;;;20.70;45.00;;;;;;5073084;28;20017;-49
2020/12/06 02:21:39;;;;;;;4.15;2.45;;;20.70;45.10;;;;;;5073230;28;20064;-49
2020/12/06 02:24:08;;;;;;;3.05;2.53;;;20.70;45.00;;;;;;5072528;28;20498;-50
2020/12/06 02:26:45;;;;;;;3.45;2.85;;;20.60;44.90;;;;;;5073332;28;20054;-47
2020/12/06 02:29:12;;;;;;;2.97;2.38;;;20.70;45.00;;;;;;5071103;28;20024;-48
2020/12/06 02:31:38;;;;;;;3.10;2.50;;;20.60;44.90;;;;;;5073016;28;20496;-48
2020/12/06 02:34:05;;;;;;;4.43;2.42;;;20.70;44.90;;;;;;5054846;28;20086;-52
2020/12/06 02:36:31;;;;;;;2.65;2.25;;;20.70;44.80;;;;;;5073401;28;20035;-49
2020/12/06 02:38:57;;;;;;;2.90;2.47;;;20.60;44.80;;;;;;5072510;28;20461;-47
2020/12/06 02:41:33;;;;;;;3.40;2.45;;;20.70;44.90;;;;;;5073075;28;20113;-47
2020/12/06 02:43:59;;;;;;;3.08;2.30;;;20.70;44.80;;;;;;5071941;28;20389;-47
2020/12/06 02:46:24;;;;;;;3.20;2.63;;;20.60;44.70;;;;;;5073426;28;20028;-51
2020/12/06 02:48:50;;;;;;;3.40;2.50;;;20.70;44.80;;;;;;5072529;28;20032;-49
2020/12/06 02:51:15;;;;;;;3.20;2.33;;;20.60;45.30;;;;;;5073119;28;20035;-48
2020/12/06 02:53:41;;;;;;;4.50;2.60;;;20.70;44.70;;;;;;5072107;28;20036;-47
2020/12/06 02:56:07;;;;;;;2.60;2.40;;;20.70;44.70;;;;;;5071754;28;20019;-47
2020/12/06 02:58:32;;;;;;;2.80;2.30;;;20.60;44.50;;;;;;5072867;28;20063;-47
2020/12/06 03:00:58;;;;;;;2.72;2.35;;;20.60;44.60;;;;;;5054321;28;20418;-50
2020/12/06 03:03:23;;;;;;;2.97;2.53;;;20.60;44.50;;;;;;5072400;28;20135;-47
2020/12/06 03:05:49;;;;;;;3.83;2.40;;;20.60;44.50;;;;;;5071522;28;20044;-51
2020/12/06 03:08:15;;;;;;;5.47;2.70;;;20.60;44.60;;;;;;5073563;28;20093;-47
2020/12/06 03:10:41;;;;;;;3.45;2.42;;;20.60;44.50;;;;;;5073921;28;20029;-47
2020/12/06 03:13:07;;;;;;;3.85;2.58;;;20.60;44.50;;;;;;5073311;28;20111;-47
2020/12/06 03:15:32;;;;;;;2.78;2.42;;;20.60;44.40;;;;;;5073438;28;20086;-46
2020/12/06 03:17:58;;;;;;;2.97;2.60;;;20.60;44.50;;;;;;5072969;28;20028;-49
2020/12/06 03:20:24;;;;;;;2.72;2.38;;;20.60;44.50;;;;;;5073986;28;20127;-47
2020/12/06 03:22:49;;;;;;;2.60;2.40;;;20.60;44.50;;;;;;5072116;28;20025;-55
2020/12/06 03:25:15;;;;;;;4.28;2.47;;;20.60;44.50;;;;;;5072859;28;20040;-47
2020/12/06 03:27:40;;;;;;;3.20;2.47;;;20.60;44.50;;;;;;5073453;28;20032;-48
2020/12/06 03:30:06;;;;;;;3.33;2.38;;;20.60;44.40;;;;;;5073111;28;20618;-47
2020/12/06 03:32:32;;;;;;;3.90;2.70;;;20.60;44.50;;;;;;5074007;28;20515;-47
2020/12/06 03:34:57;;;;;;;3.50;2.58;;;20.60;44.50;;;;;;5072858;28;20029;-48
2020/12/06 03:37:23;;;;;;;3.80;2.45;;;20.70;44.50;;;;;;5073165;28;20108;-49
2020/12/06 03:39:49;;;;;;;2.92;2.50;;;20.60;44.40;;;;;;5072100;28;20056;-55
2020/12/06 03:42:16;;;;;;;4.00;3.13;;;20.60;44.50;;;;;;5073114;28;20025;-47
2020/12/06 03:44:41;;;;;;;2.97;2.20;;;20.60;44.40;;;;;;5073059;28;20098;-47
2020/12/06 03:47:07;;;;;;;2.72;2.50;;;20.60;44.40;;;;;;5072929;28;20040;-49
2020/12/06 03:49:32;;;;;;;3.30;2.53;;;20.60;44.30;;;;;;5055206;28;20393;-52
2020/12/06 03:51:58;;;;;;;3.53;2.67;;;20.60;44.30;;;;;;5087295;28;20454;-48
2020/12/06 03:54:24;;;;;;;3.10;2.47;;;20.60;44.30;;;;;;5073015;28;20115;-48
2020/12/06 03:56:50;;;;;;;3.78;2.88;;;20.60;44.40;;;;;;5072225;28;20020;-54
2020/12/06 03:59:15;;;;;;;4.18;3.03;;;20.60;44.30;;;;;;5072695;28;20048;-47
2020/12/06 04:01:41;;;;;;;3.25;2.65;;;20.60;44.30;;;;;;5073293;28;20060;-48
2020/12/06 04:04:06;;;;;;;3.17;2.80;;;20.70;44.30;;;;;;5071764;28;20633;-47
2020/12/06 04:06:32;;;;;;;3.25;2.90;;;20.70;44.30;;;;;;5073165;28;20025;-47
2020/12/06 04:08:58;;;;;;;3.40;3.08;;;20.70;44.30;;;;;;5054563;28;20119;-48
2020/12/06 04:11:23;;;;;;;4.43;3.10;;;20.70;44.30;;;;;;5072338;28;20067;-47
2020/12/06 04:13:49;;;;;;;3.17;2.53;;;20.70;44.30;;;;;;5072230;28;20024;-55
2020/12/06 04:16:14;;;;;;;3.75;3.20;;;20.60;44.20;;;;;;5072664;28;20032;-48
2020/12/06 04:18:40;;;;;;;3.78;2.78;;;20.70;44.20;;;;;;5072335;28;20021;-47
2020/12/06 04:21:10;;;;;;;3.70;2.60;;;20.70;44.20;;;;;;5053981;28;20029;-47
2020/12/06 04:23:38;;;;;;;4.50;3.72;;;20.70;44.20;;;;;;5072780;28;20075;-47
2020/12/06 04:26:04;;;;;;;4.03;3.13;;;20.70;44.20;;;;;;5071557;28;20028;-47
2020/12/06 04:28:29;;;;;;;4.55;3.00;;;20.70;44.20;;;;;;5072262;28;20112;-49
2020/12/06 04:30:55;;;;;;;4.75;3.47;;;20.70;44.10;;;;;;5053932;28;20055;-47
2020/12/06 04:33:20;;;;;;;3.85;3.35;;;20.60;44.00;;;;;;5072485;28;20020;-47
2020/12/06 04:35:46;;;;;;;3.90;3.10;;;20.70;44.10;;;;;;5072165;28;20043;-49
2020/12/06 04:38:12;;;;;;;4.88;3.58;;;20.70;44.10;;;;;;5071583;28;20469;-47
2020/12/06 04:40:37;;;;;;;4.07;3.25;;;20.70;44.00;;;;;;5071324;28;20047;-48
2020/12/06 04:43:03;;;;;;;5.55;3.10;;;20.70;44.00;;;;;;5053293;28;20039;-53
2020/12/06 04:45:29;;;;;;;5.32;3.92;;;20.70;44.00;;;;;;5070800;28;20039;-47
2020/12/06 04:48:27;;;;;;;3.88;2.97;;;20.70;44.00;;;;;;5071252;28;20056;-49
2020/12/06 04:50:55;;;;;;;3.50;3.03;;;20.60;44.00;;;;;;5020517;28;20033;-54
2020/12/06 04:53:27;;;;;;;4.45;3.58;;;20.70;44.00;;;;;;5072282;28;20017;-50
2020/12/06 04:55:54;;;;;;;;;;;20.70;44.00;;;;;;5071006;28;20520;-53
2020/12/06 04:58:29;;;;;;;4.95;3.10;;;20.70;44.00;;;;;;5071525;28;19908;-48
2020/12/06 05:00:55;;;;;;;5.30;3.70;;;20.70;43.90;;;;;;5071451;28;20496;-47
2020/12/06 05:03:23;;;;;;;4.13;3.05;;;20.60;43.80;;;;;;5071501;28;20024;-48
2020/12/06 05:05:50;;;;;;;3.90;3.05;;;20.70;44.00;;;;;;5071368;28;20473;-48
2020/12/06 05:08:17;;;;;;;3.15;2.72;;;20.70;44.00;;;;;;5071264;28;20021;-48
2020/12/06 05:10:48;;;;;;;3.80;3.13;;;20.60;44.00;;;;;;5071224;28;20044;-49
2020/12/06 05:13:15;;;;;;;4.15;3.33;;;20.70;44.00;;;;;;5070286;28;20031;-49
2020/12/06 05:15:41;;;;;;;3.47;3.05;;;20.60;43.80;;;;;;5071243;28;20032;-49
2020/12/06 05:18:07;;;;;;;4.22;3.60;;;20.70;43.90;;;;;;5070911;28;20090;-47
2020/12/06 05:20:34;;;;;;;4.53;3.53;;;20.70;43.80;;;;;;5071525;28;20029;-49
2020/12/06 05:23:00;;;;;;;4.30;3.47;;;20.70;43.90;;;;;;5070759;28;20025;-47
2020/12/06 05:25:25;;;;;;;5.20;3.78;;;20.70;43.90;;;;;;5071447;28;20037;-47
2020/12/06 05:27:51;;;;;;;5.18;3.67;;;20.70;43.80;;;;;;5070801;28;20480;-54
2020/12/06 05:30:17;;;;;;;4.45;3.03;;;20.70;43.80;;;;;;5070808;28;20032;-46
2020/12/06 05:32:43;;;;;;;4.45;3.30;;;20.70;43.80;;;;;;5069901;28;20078;-47
2020/12/06 05:35:11;;;;;;;5.03;3.83;;;20.70;43.80;;;;;;5070793;28;20024;-47
2020/12/06 05:37:38;;;;;;;4.75;3.60;;;20.70;43.70;;;;;;5070871;28;20108;-47
2020/12/06 05:40:05;;;;;;;4.95;3.92;;;20.60;43.70;;;;;;5070382;28;20036;-47
2020/12/06 05:42:32;;;;;;;4.72;3.42;;;20.70;43.80;;;;;;5070410;28;20028;-50
2020/12/06 05:44:59;;;;;;;5.03;3.20;;;20.60;43.60;;;;;;5069587;28;20370;-48
2020/12/06 05:47:25;;;;;;;3.97;2.95;;;20.70;43.70;;;;;;5071042;28;20047;-48
2020/12/06 05:49:50;;;;;;;5.22;3.20;;;20.60;43.70;;;;;;5070897;28;20521;-56
2020/12/06 05:52:18;;;;;;;3.97;3.22;;;20.70;43.70;;;;;;5075946;28;20028;-48
2020/12/06 05:54:45;;;;;;;3.95;3.20;;;20.70;43.70;;;;;;5070156;28;20465;-48
2020/12/06 05:57:12;;;;;;;4.05;3.50;;;20.70;43.70;;;;;;5070461;28;20051;-47
2020/12/06 05:59:38;;;;;;;4.05;3.17;;;20.70;43.60;;;;;;5071255;28;20417;-51
2020/12/06 06:02:05;;;;;;;4.28;3.35;;;20.70;43.60;;;;;;5070240;28;20032;-49
2020/12/06 06:04:36;;;;;;;4.20;3.17;;;20.70;43.60;;;;;;5071132;28;20049;-51
2020/12/06 06:07:03;;;;;;;4.78;3.53;;;20.70;43.60;;;;;;5070781;28;20027;-52
2020/12/06 06:09:33;;;;;;;4.53;3.35;;;20.70;43.60;;;;;;5070914;28;20473;-47
2020/12/06 06:12:26;;;;;;;4.63;3.65;;;20.70;43.60;;;;;;5070676;28;20032;-47
2020/12/06 06:14:53;;;;;;;4.93;3.53;;;20.70;43.60;;;;;;5048375;28;20059;-54
2020/12/06 06:17:22;;;;;;;4.15;2.92;;;20.70;43.60;;;;;;5070525;28;20024;-49
2020/12/06 06:19:48;;;;;;;3.75;3.10;;;20.70;43.60;;;;;;5069758;28;20083;-49
2020/12/06 06:22:17;;;;;;;4.28;3.15;;;20.70;43.50;;;;;;5069999;28;20025;-46
2020/12/06 06:24:45;;;;;;;4.13;3.15;;;20.70;43.50;;;;;;5070696;28;20051;-47
2020/12/06 06:27:11;;;;;;;3.83;3.28;;;20.70;43.50;;;;;;5069772;28;20419;-50
2020/12/06 06:29:37;;;;;;;3.25;2.88;;;20.70;43.50;;;;;;5052521;28;20029;-49
2020/12/06 06:32:03;;;;;;;4.13;3.40;;;20.70;43.50;;;;;;5070018;28;20509;-51
2020/12/06 06:34:33;;;;;;;4.13;3.00;;;20.70;43.40;;;;;;5052396;28;20028;-46
2020/12/06 06:36:59;;;;;;;5.15;3.30;;;20.70;43.50;;;;;;5070017;28;20024;-47
2020/12/06 06:39:26;;;;;;;4.63;3.50;;;20.70;43.40;;;;;;5073735;28;20039;-47
2020/12/06 06:41:59;;;;;;;3.95;2.97;;;20.80;43.50;;;;;;5070979;28;20107;-56
2020/12/06 06:44:26;;;;;;;4.30;3.47;;;20.80;43.50;;;;;;5070011;28;20040;-48
2020/12/06 06:46:52;;;;;;;3.83;3.15;;;20.80;43.40;;;;;;5070405;28;20021;-47
2020/12/06 06:49:19;;;;;;;3.65;3.13;;;20.70;43.40;;;;;;5069919;28;20123;-47
2020/12/06 06:51:52;;;;;;;3.55;3.22;;;20.80;43.50;;;;;;5070591;28;20035;-46
2020/12/06 06:54:28;;;;;;;4.30;3.47;;;20.70;43.40;;;;;;5069795;28;20036;-52
2020/12/06 06:56:56;;;;;;;3.67;2.92;;;20.80;43.40;;;;;;5064350;28;20082;-54
2020/12/06 06:59:44;;;;;;;4.32;3.60;;;20.70;43.40;;;;;;5073306;28;20032;-48
2020/12/06 07:02:38;;;;;;;3.35;3.05;;;20.70;43.30;;;;;;5073777;28;20373;-48
2020/12/06 07:05:12;;;;;;;3.30;2.80;;;20.70;43.30;;;;;;5073570;28;20037;-50
2020/12/06 07:07:41;;;;;;;3.95;3.20;;;20.80;43.30;;;;;;5073380;28;20445;-47
2020/12/06 07:10:08;;;;;;;4.22;3.50;;;20.80;43.30;;;;;;5072889;28;20028;-47
2020/12/06 07:13:04;;;;;;;4.60;3.47;;;20.80;43.30;;;;;;5073800;28;20473;-47
2020/12/06 07:15:30;;;;;;;3.13;2.78;;;20.80;43.30;;;;;;5071687;28;20040;-48
2020/12/06 07:17:56;;;;;;;4.25;3.28;;;20.80;43.30;;;;;;5073725;28;20078;-54
2020/12/06 07:20:24;;;;;;;4.63;3.63;;;20.80;43.30;;;;;;5073783;28;20032;-48
2020/12/06 07:22:52;;;;;;;4.82;3.33;;;20.80;43.30;;;;;;5073417;28;20397;-48
2020/12/06 07:25:19;;;;;;;4.30;3.47;;;20.80;43.30;;;;;;5072459;28;20036;-47
2020/12/06 07:27:46;;;;;;;4.50;3.35;;;20.80;43.30;;;;;;5073044;28;20535;-50
2020/12/06 07:30:17;;;;;;;5.22;3.60;;;20.80;43.30;;;;;;5072155;28;20021;-48
2020/12/06 07:32:43;;;;;;;4.20;3.25;;;20.80;43.20;;;;;;5074134;28;20037;-47
2020/12/06 07:35:11;;;;;;;4.75;3.28;;;20.80;43.20;;;;;;5072711;28;20071;-48
2020/12/06 07:37:37;;;;;;;4.40;3.55;;;20.80;43.20;;;;;;5073596;28;20039;-47
2020/12/06 07:40:06;;;;;;;5.18;3.70;;;20.80;43.20;;;;;;5072516;28;20534;-48
2020/12/06 07:42:31;;;;;;;4.68;3.65;;;20.80;43.20;;;;;;5073783;28;20033;-48
2020/12/06 07:44:59;;;;;;;3.85;2.92;;;20.80;43.20;;;;;;5072804;28;20042;-55
2020/12/06 07:47:26;;;;;;;4.88;3.63;;;20.80;43.20;;;;;;5068459;28;20031;-47
2020/12/06 07:49:57;;;;;;;3.65;2.80;;;20.80;43.20;;;;;;5055313;28;20354;-48
2020/12/06 07:52:27;;;;;;;4.65;3.30;;;20.80;43.30;;;;;;5073178;28;20021;-48
2020/12/06 07:55:08;;;;;;;4.30;3.47;;;20.80;43.20;;;;;;5073071;28;20550;-46
2020/12/06 07:57:40;;;;;;;4.38;3.55;;;20.80;43.20;;;;;;5071366;28;20032;-47
2020/12/06 08:00:15;;;;;;;4.45;3.58;;;20.80;43.20;;;;;;5071648;28;20024;-47
2020/12/06 08:02:58;;;;;;;3.88;3.00;;;20.80;43.20;;;;;;5068866;28;20028;-47
2020/12/06 08:05:26;;;;;;;4.28;3.38;;;20.80;43.10;;;;;;5072818;28;20052;-48
2020/12/06 08:07:57;;;;;;;4.82;3.58;;;20.80;43.10;;;;;;5054566;28;20378;-48
2020/12/06 08:10:26;;;;;;;4.55;3.35;;;20.80;43.10;;;;;;5072587;28;20093;-48
2020/12/06 08:12:54;;;;;;;3.67;3.00;;;20.80;43.10;;;;;;5072888;28;20119;-52
2020/12/06 08:15:24;;;;;;;4.10;3.53;;;20.80;43.20;;;;;;5071692;28;20032;-50
2020/12/06 08:17:51;;;;;;;4.25;3.08;;;20.90;43.20;;;;;;5072677;28;20029;-53
2020/12/06 08:20:20;;;;;;;4.50;3.50;;;20.90;43.10;;;;;;5072986;28;20028;-47
2020/12/06 08:22:58;;;;;;;5.43;2.83;;;20.90;43.10;;;;;;5071300;28;20099;-55
2020/12/06 08:25:26;;;;;;;4.85;3.63;;;20.90;43.10;;;;;;5093208;28;20031;-49
2020/12/06 08:27:53;;;;;;;4.75;3.40;;;21.00;43.20;;;;;;5093342;28;20093;-48
2020/12/06 08:30:21;;;;;;;4.78;3.85;;;21.00;43.20;;;;;;5073307;28;20024;-53
2020/12/06 08:32:56;;;;;;;4.85;3.55;;;21.00;43.20;;;;;;5072406;28;20358;-49
2020/12/06 08:35:37;;;;;;;4.93;3.63;;;21.00;43.10;;;;;;5071616;28;20036;-47
2020/12/06 08:38:20;;;;;;;4.68;3.40;;;21.10;43.00;;;;;;5072163;28;20025;-57
2020/12/06 08:41:06;;;;;;;3.83;3.15;;;21.00;43.00;;;;;;5070527;28;20029;-55
2020/12/06 08:44:02;;;;;;;4.43;2.97;;;21.10;43.10;;;;;;5073835;28;20270;-56
2020/12/06 08:46:28;;;;;;;7.15;3.15;;;21.10;43.00;;;;;;5070681;28;20028;-48
2020/12/06 08:48:57;;;;;;;5.80;3.38;;;21.10;43.00;;;;;;5080095;28;20027;-47
2020/12/06 08:51:31;;;;;;;3.83;2.95;;;21.20;43.10;;;;;;5090061;28;20032;-50
2020/12/06 08:53:59;;;;;;;5.10;3.78;;;21.20;42.90;;;;;;5075973;28;20038;-53
2020/12/06 08:56:33;;;;;;;4.60;2.90;;;21.30;42.90;;;;;;5076098;28;20032;-54
2020/12/06 08:59:07;;;;;;;5.43;2.97;;;21.30;42.80;;;;;;5071037;28;20024;-55
2020/12/06 09:01:45;;;;;;;3.22;2.50;;;21.20;42.70;;;;;;5082094;28;20131;-57
2020/12/06 09:04:10;;;;;;;6.97;2.90;;;21.30;42.90;;;;;;5070693;28;20048;-50
2020/12/06 09:06:38;;;;;;;4.20;3.20;;;21.30;42.80;;;;;;5071572;28;20040;-56
2020/12/06 09:09:06;;;;;;;5.07;2.80;;;21.20;42.70;;;;;;5070759;28;20035;-55
2020/12/06 09:11:32;;;;;;;4.05;3.17;;;21.30;42.80;;;;;;5069438;28;20066;-54
2020/12/06 09:13:58;;;;;;;3.65;2.83;;;21.30;42.80;;;;;;5071292;28;20095;-57
2020/12/06 09:16:24;;;;;;;4.53;3.00;;;21.30;42.90;;;;;;5070773;28;20029;-57
2020/12/06 09:18:51;;;;;;;7.22;2.58;;;21.40;42.90;;;;;;5073043;28;20024;-57
2020/12/06 09:21:17;;;;;;;13.50;3.38;;;21.40;42.90;;;;;;5069075;28;20024;-64
2020/12/06 09:23:45;;;;;;;9.02;2.72;;;21.40;43.00;;;;;;5055154;28;20119;-69
2020/12/06 09:26:11;;;;;;;6.05;3.17;;;21.40;43.30;;;;;;5070580;28;20042;-68
2020/12/06 09:28:37;;;;;;;9.73;2.92;;;21.40;43.10;;;;;;5053769;28;20112;-66
2020/12/06 09:31:03;;;;;;;4.40;2.88;;;21.40;43.90;;;;;;5070615;28;20446;-65
2020/12/06 09:33:29;;;;;;;7.05;3.40;;;21.50;44.00;;;;;;5071363;28;20047;-67
2020/12/06 09:35:55;;;;;;;8.52;2.83;;;21.50;44.00;;;;;;5071299;28;20033;-70
2020/12/06 09:38:22;;;;;;;7.22;2.92;;;21.50;44.30;;;;;;5070833;28;20021;-76
2020/12/06 09:40:48;;;;;;;7.70;2.70;;;21.60;44.30;;;;;;5071039;28;20039;-68
2020/12/06 09:43:14;;;;;;;4.78;2.50;;;21.60;44.30;;;;;;5070223;28;20025;-66
2020/12/06 09:45:42;;;;;;;9.18;2.95;;;21.60;44.40;;;;;;5071233;28;20032;-67
2020/12/06 09:48:08;;;;;;;5.88;2.65;;;21.60;44.50;;;;;;5082310;28;20029;-70
2020/12/06 09:50:34;;;;;;;11.55;2.67;;;21.60;44.60;;;;;;5071146;28;20426;-65
2020/12/06 09:53:00;;;;;;;4.15;2.80;;;21.60;44.70;;;;;;5072970;28;20059;-63
2020/12/06 09:55:27;;;;;;;5.68;2.55;;;21.70;44.70;;;;;;5082418;28;20078;-66
2020/12/06 09:57:54;;;;;;;4.25;2.83;;;21.70;44.60;;;;;;5053757;28;20036;-60
2020/12/06 10:00:20;;;;;;;5.10;2.50;;;21.70;44.80;;;;;;5066117;28;20074;-73
2020/12/06 10:02:47;;;;;;;4.65;2.50;;;21.70;44.50;;;;;;5071023;28;20079;-70
2020/12/06 10:05:13;;;;;;;4.88;2.88;;;21.60;44.70;;;;;;5069684;28;20049;-72
2020/12/06 10:07:39;;;;;;;8.82;2.40;;;21.60;44.90;;;;;;5070921;28;20373;-66
2020/12/06 10:10:06;;;;;;;5.57;2.78;;;21.60;45.00;;;;;;5070574;28;20028;-64
2020/12/06 10:12:32;;;;;;;5.45;2.42;;;21.70;44.90;;;;;;5086849;28;20032;-67
2020/12/06 10:14:59;;;;;;;3.55;2.72;;;21.70;45.00;;;;;;5087843;28;20499;-70
2020/12/06 10:17:25;;;;;;;5.47;2.70;;;21.70;44.80;;;;;;5069998;28;20024;-71
2020/12/06 10:19:51;;;;;;;3.72;2.05;;;21.70;44.90;;;;;;5066669;28;20036;-65
2020/12/06 10:22:18;;;;;;;3.97;2.20;;;21.70;45.00;;;;;;5075411;28;20082;-64
2020/12/06 10:24:43;;;;;;;8.07;2.15;;;21.60;44.90;;;;;;5073217;28;20074;-68
2020/12/06 10:27:09;;;;;;;4.47;2.58;;;21.60;45.00;;;;;;5068201;28;20052;-64
2020/12/06 10:29:36;;;;;;;2.60;2.25;;;21.60;45.00;;;;;;5083112;28;20056;-66
2020/12/06 10:32:02;;;;;;;4.07;2.70;;;21.60;45.00;;;;;;5054455;28;20123;-64
2020/12/06 10:34:28;;;;;;;2.53;2.17;;;21.60;45.00;;;;;;5073829;28;20035;-65
2020/12/06 10:36:58;;;;;;;3.20;2.33;;;21.60;45.00;;;;;;5074973;28;20170;-65
2020/12/06 10:39:26;;;;;;;3.67;2.45;;;21.60;45.00;;;;;;5090297;28;20614;-65
2020/12/06 10:41:54;;;;;;;3.00;2.33;;;21.60;45.00;;;;;;5073925;28;20020;-65
2020/12/06 10:44:22;;;;;;;4.75;1.90;;;21.60;44.90;;;;;;5068416;28;20111;-65
2020/12/06 10:46:49;;;;;;;3.72;2.20;;;21.60;44.80;;;;;;5074257;28;20031;-65
2020/12/06 10:49:16;;;;;;;2.70;2.10;;;21.70;45.10;;;;;;5072723;28;20053;-65
2020/12/06 10:51:44;;;;;;;3.15;2.00;;;21.70;44.90;;;;;;5076174;28;20025;-65
2020/12/06 10:54:12;;;;;;;4.97;2.03;;;21.60;45.60;;;;;;5085167;28;20035;-64
2020/12/06 10:56:40;;;;;;;2.58;2.20;;;21.70;44.90;;;;;;5074274;28;20063;-67
2020/12/06 10:59:07;;;;;;;4.07;2.20;;;21.70;45.00;;;;;;5073283;28;20024;-66
2020/12/06 11:01:35;;;;;;;2.50;1.70;;;21.60;44.80;;;;;;5074724;28;20094;-66
2020/12/06 11:04:04;;;;;;;2.72;1.92;;;21.70;44.90;;;;;;5068934;28;20887;-65
2020/12/06 11:06:31;;;;;;;3.38;1.90;;;21.60;44.80;;;;;;5073548;28;20024;-63
2020/12/06 11:08:58;;;;;;;2.30;1.92;;;21.60;44.80;;;;;;5088359;28;20024;-66
2020/12/06 11:11:26;;;;;;;4.00;2.30;;;21.70;44.90;;;;;;5073046;28;20028;-62
2020/12/06 11:13:53;;;;;;;2.63;1.60;;;21.60;44.80;;;;;;5073458;28;20020;-62
2020/12/06 11:16:23;;;;;;;2.25;1.95;;;21.70;44.80;;;;;;5054895;28;20029;-67
2020/12/06 11:18:51;;;;;;;2.58;1.90;;;21.70;44.70;;;;;;5076588;28;21283;-64
2020/12/06 11:21:18;;;;;;;4.00;2.35;;;21.70;44.70;;;;;;5089535;28;20025;-65
2020/12/06 11:23:47;;;;;;;3.20;1.95;;;21.70;44.70;;;;;;5076583;28;20060;-66
2020/12/06 11:26:16;;;;;;;2.95;1.77;;;21.70;44.70;;;;;;5072604;28;20024;-63
2020/12/06 11:28:45;;;;;;;4.53;1.90;;;21.70;44.70;;;;;;5073667;28;20052;-62
2020/12/06 11:31:12;;;;;;;2.88;2.10;;;21.70;44.80;;;;;;5072941;28;20047;-68
2020/12/06 11:33:38;;;;;;;5.85;1.90;;;21.60;44.70;;;;;;5073112;28;20036;-64
2020/12/06 11:36:04;;;;;;;2.25;1.85;;;21.70;45.00;;;;;;5073685;28;20024;-69
2020/12/06 11:38:30;;;;;;;3.85;1.70;;;21.70;44.70;;;;;;5076052;28;20073;-69
2020/12/06 11:40:56;;;;;;;2.63;1.80;;;21.60;44.70;;;;;;5073420;28;20105;-64
2020/12/06 11:43:22;;;;;;;2.38;1.80;;;21.70;44.80;;;;;;5070938;28;20036;-68
2020/12/06 11:45:48;;;;;;;4.45;1.75;;;21.70;44.50;;;;;;5073074;28;20097;-67
2020/12/06 11:48:14;;;;;;;3.15;1.70;;;21.80;44.60;;;;;;5072649;28;20029;-69
2020/12/06 11:50:40;;;;;;;4.65;1.98;;;21.70;44.60;;;;;;5075850;28;20036;-69
2020/12/06 11:53:06;;;;;;;4.30;1.85;;;21.70;44.70;;;;;;5075849;28;20393;-63
2020/12/06 11:55:32;;;;;;;2.60;1.40;;;21.70;44.60;;;;;;5062889;28;20029;-69
2020/12/06 11:57:57;;;;;;;3.17;1.75;;;21.70;44.60;;;;;;5073254;28;20055;-67
2020/12/06 12:00:24;;;;;;;3.67;1.45;;;21.70;44.70;;;;;;5072767;28;20030;-61
2020/12/06 12:02:49;;;;;;;2.80;1.80;;;21.80;44.60;;;;;;5077429;28;20366;-64
2020/12/06 12:05:15;;;;;;;3.28;2.00;;;21.80;44.50;;;;;;5071889;28;20044;-65
2020/12/06 12:07:44;;;;;;;2.75;2.00;;;21.80;44.40;;;;;;5073072;28;20122;-66
2020/12/06 12:10:11;;;;;;;4.18;2.38;;;21.70;44.50;;;;;;5053985;28;20024;-64
2020/12/06 12:12:37;;;;;;;3.05;1.88;;;21.70;44.50;;;;;;5073085;28;20021;-68
2020/12/06 12:15:04;;;;;;;6.97;2.42;;;21.70;44.50;;;;;;5072340;28;20080;-67
2020/12/06 12:17:33;;;;;;;4.65;2.35;;;21.70;44.60;;;;;;5072726;28;20024;-63
2020/12/06 12:19:59;;;;;;;4.22;2.40;;;21.70;44.50;;;;;;5072912;28;20031;-61
2020/12/06 12:22:25;;;;;;;3.90;2.25;;;21.60;44.50;;;;;;5071727;28;20029;-62
2020/12/06 12:24:50;;;;;;;5.97;2.60;;;21.60;44.20;;;;;;5076150;28;20044;-63
2020/12/06 12:27:16;;;;;;;4.57;1.92;;;21.50;44.40;;;;;;5071199;28;20067;-62
2020/12/06 12:29:42;;;;;;;5.10;2.33;;;21.70;44.40;;;;;;5072433;28;20113;-62
2020/12/06 12:32:07;;;;;;;5.50;2.53;;;21.60;44.20;;;;;;5072564;28;20029;-62
2020/12/06 12:34:33;;;;;;;5.75;2.95;;;21.60;44.00;;;;;;5072127;28;20036;-62
2020/12/06 12:36:59;;;;;;;6.20;2.90;;;21.70;45.30;;;;;;5072597;28;20028;-62
2020/12/06 12:39:24;;;;;;;9.05;2.60;;;21.70;44.90;;;;;;5071155;28;20082;-63
2020/12/06 12:41:50;;;;;;;5.85;3.03;;;21.70;45.30;;;;;;5054771;28;20040;-66
2020/12/06 12:44:16;;;;;;;5.57;2.65;;;21.70;45.40;;;;;;5071269;28;20037;-64
2020/12/06 12:46:42;;;;;;;5.68;2.53;;;21.70;45.60;;;;;;5072077;28;20062;-62
2020/12/06 12:49:07;;;;;;;4.47;2.50;;;21.70;46.00;;;;;;5071729;28;20385;-62